»·PEaware :: N137SB KTUS-KABQ

N137SB :: KTUS-KABQ

FLIGHT INFORMATION

Flight Status: Arrived
Operator: Privately registered:
United States
More flights under this callsign
Pilot: Dean S. (16265)
Aircraft: Unknown
(G58)
More flights by this aircraft type
Origin: KTUS Tucson Intl
United States
Destination: KABQ Albuquerque Intl Sunport
United States
More flights between these airports :: More routes between these airports
Route: +
File this flight plan on PilotEdge
Remarks:
Altitude:
(Current/Filed)
11,500ft
Speed:
(Current/Filed)
0kts
Departed: 25-Oct-20 12:11 PM
Arrived: 25-Oct-20 01:50 PM
Distance/Time
Traveled:
278nm/1:39
Distance/Time
To Go:
Arrived

Flight Plot

Page will automatically refresh every two minutes.

Flight plan parsing failed; only flown route is shown


Map Options




Map Legend


Flown Route
Filed Route
Departure Airport
Arrival Airport
Navaid (VOR, NDB)
Fix

Horizontal Profiles

Position Reports

Time Latitude Longitude Heading Altitude Ground
Speed
25-Oct-20 12:02 32.127361 -110.943703 316 2573ft 0kts
25-Oct-20 12:03 32.127361 -110.943703 316 2573ft 0kts
25-Oct-20 12:04 32.127361 -110.943703 316 2573ft 0kts
25-Oct-20 12:05 32.127361 -110.943703 316 2573ft 0kts
25-Oct-20 12:06 32.129359 -110.942338 43 2573ft 15kts
25-Oct-20 12:07 32.130027 -110.942369 315 2572ft 0kts
25-Oct-20 12:08 32.130027 -110.942369 315 2572ft 0kts
25-Oct-20 12:09 32.130338 -110.942749 311 2571ft 12kts
25-Oct-20 12:10 32.114705 -110.960490 217 3281ft 138kts
25-Oct-20 12:11 32.082800 -110.933924 111 5051ft 166kts
25-Oct-20 12:12 32.077935 -110.881809 93 6927ft 169kts
25-Oct-20 12:13 32.075460 -110.826868 91 8577ft 167kts
25-Oct-20 12:14 32.089799 -110.774756 64 9853ft 174kts
25-Oct-20 12:15 32.110715 -110.723189 96 10871ft 178kts
25-Oct-20 12:16 32.111796 -110.662797 83 11444ft 189kts
25-Oct-20 12:17 32.119571 -110.599545 81 11499ft 198kts
25-Oct-20 12:18 32.127048 -110.535073 82 11501ft 199kts
25-Oct-20 12:19 32.134616 -110.470373 82 11500ft 198kts
25-Oct-20 12:20 32.142112 -110.405867 82 11498ft 198kts
25-Oct-20 12:21 32.149571 -110.341310 82 11499ft 198kts
25-Oct-20 12:22 32.157021 -110.276641 82 11501ft 198kts
25-Oct-20 12:23 32.164416 -110.212098 82 11499ft 198kts
25-Oct-20 12:24 32.171784 -110.147477 82 11500ft 198kts
25-Oct-20 12:25 32.179134 -110.082804 82 11500ft 198kts
25-Oct-20 12:26 32.186415 -110.018326 82 11499ft 198kts
25-Oct-20 12:27 32.193686 -109.953692 82 11500ft 198kts
25-Oct-20 12:28 32.200928 -109.889036 82 11499ft 198kts
25-Oct-20 12:29 32.208116 -109.824472 82 11500ft 198kts
25-Oct-20 12:30 32.215307 -109.759692 82 11500ft 198kts
25-Oct-20 12:31 32.222431 -109.695099 82 11500ft 198kts
25-Oct-20 12:32 32.229542 -109.630387 82 11502ft 199kts
25-Oct-20 12:33 32.236617 -109.565650 82 11501ft 198kts
25-Oct-20 12:34 32.243645 -109.500987 82 11500ft 198kts
25-Oct-20 12:35 32.250661 -109.436290 82 11500ft 198kts
25-Oct-20 12:36 32.257617 -109.371709 82 11499ft 198kts
25-Oct-20 12:37 32.264544 -109.307090 82 11500ft 198kts
25-Oct-20 12:38 32.285858 -109.252574 23 11504ft 197kts
25-Oct-20 12:39 32.332814 -109.219143 36 11499ft 197kts
25-Oct-20 12:40 32.375925 -109.178811 37 11500ft 197kts
25-Oct-20 12:42 32.419324 -109.138692 37 11499ft 198kts
25-Oct-20 12:43 32.462728 -109.098417 37 11499ft 197kts
25-Oct-20 12:44 32.505893 -109.058315 37 11500ft 197kts
25-Oct-20 12:45 32.549161 -109.018072 37 11500ft 197kts
25-Oct-20 12:46 32.592249 -108.977954 37 11499ft 197kts
25-Oct-20 12:47 32.635316 -108.937803 37 11499ft 197kts
25-Oct-20 12:48 32.678385 -108.897588 37 11499ft 197kts
25-Oct-20 12:49 32.721391 -108.857400 37 11500ft 197kts
25-Oct-20 12:50 32.764500 -108.817038 37 11501ft 197kts
25-Oct-20 12:51 32.807486 -108.776772 38 11499ft 197kts
25-Oct-20 12:52 32.850566 -108.736354 37 11501ft 197kts
25-Oct-20 12:53 32.893626 -108.695897 38 11499ft 197kts
25-Oct-20 12:54 32.936597 -108.655467 38 11500ft 197kts
25-Oct-20 12:55 32.979475 -108.615082 38 11500ft 197kts
25-Oct-20 12:56 33.022399 -108.574608 38 11500ft 197kts
25-Oct-20 12:57 33.065304 -108.534095 38 11500ft 197kts
25-Oct-20 12:58 33.108271 -108.493468 37 11499ft 197kts
25-Oct-20 12:58 33.144096 -108.459553 38 11503ft 197kts
25-Oct-20 13:00 33.194163 -108.412097 38 11499ft 197kts
25-Oct-20 13:00 33.229862 -108.378213 38 11500ft 197kts
25-Oct-20 13:02 33.279958 -108.330619 38 11499ft 197kts
25-Oct-20 13:02 33.315616 -108.296688 38 11501ft 197kts
25-Oct-20 13:03 33.358501 -108.255833 38 11499ft 197kts
25-Oct-20 13:04 33.401405 -108.214898 38 11498ft 197kts
25-Oct-20 13:05 33.444163 -108.174066 38 11500ft 197kts
25-Oct-20 13:06 33.486950 -108.133155 38 11499ft 197kts
25-Oct-20 13:07 33.529769 -108.092141 38 11500ft 197kts
25-Oct-20 13:08 33.572532 -108.051153 38 11499ft 197kts
25-Oct-20 13:09 33.615392 -108.010000 38 11499ft 197kts
25-Oct-20 13:10 33.658080 -107.968953 38 11500ft 197kts
25-Oct-20 13:11 33.700778 -107.927860 38 11500ft 197kts
25-Oct-20 13:12 33.743648 -107.886530 38 11500ft 197kts
25-Oct-20 13:13 33.786292 -107.845381 38 11498ft 197kts
25-Oct-20 13:14 33.828886 -107.804206 38 11500ft 197kts
25-Oct-20 13:15 33.871697 -107.762784 38 11500ft 197kts
25-Oct-20 13:16 33.914292 -107.721512 38 11500ft 197kts
25-Oct-20 13:17 33.957041 -107.680025 38 11500ft 197kts
25-Oct-20 13:18 33.999746 -107.638547 38 11499ft 197kts
25-Oct-20 13:19 34.042356 -107.597080 38 11499ft 197kts
25-Oct-20 13:20 34.085043 -107.555508 38 11499ft 197kts
25-Oct-20 13:21 34.127670 -107.513915 38 11500ft 197kts
25-Oct-20 13:22 34.170422 -107.472161 38 11500ft 197kts
25-Oct-20 13:23 34.212949 -107.430571 38 11499ft 197kts
25-Oct-20 13:24 34.255524 -107.388864 38 11499ft 197kts
25-Oct-20 13:25 34.295717 -107.344262 49 11116ft 198kts
25-Oct-20 13:26 34.333767 -107.299348 36 11125ft 187kts
25-Oct-20 13:27 34.375475 -107.260835 33 11019ft 190kts
25-Oct-20 13:28 34.418899 -107.224098 35 10890ft 191kts
25-Oct-20 13:29 34.458710 -107.182688 24 11079ft 171kts
25-Oct-20 13:30 34.502962 -107.149136 40 10725ft 192kts
25-Oct-20 13:31 34.545910 -107.112568 31 10733ft 189kts
25-Oct-20 13:32 34.589236 -107.079596 31 11083ft 178kts
25-Oct-20 13:33 34.630642 -107.045532 36 11416ft 179kts
25-Oct-20 13:34 34.669408 -107.007649 41 10810ft 180kts
25-Oct-20 13:35 34.705911 -106.968663 39 10026ft 163kts
25-Oct-20 13:36 34.741356 -106.931361 40 9229ft 169kts
25-Oct-20 13:37 34.778886 -106.897725 41 8505ft 173kts
25-Oct-20 13:38 34.814787 -106.861448 38 8067ft 161kts
25-Oct-20 13:39 34.849460 -106.826778 39 7753ft 161kts
25-Oct-20 13:40 34.884844 -106.791781 38 7352ft 158kts
25-Oct-20 13:41 34.912225 -106.751643 56 7373ft 152kts
25-Oct-20 13:42 34.948990 -106.728298 20 7328ft 159kts
25-Oct-20 13:43 34.989136 -106.705462 48 7176ft 150kts
25-Oct-20 13:44 34.994371 -106.655017 79 6921ft 149kts
25-Oct-20 13:45 35.013379 -106.610994 46 6923ft 143kts
25-Oct-20 13:46 35.038838 -106.576948 44 6695ft 131kts
25-Oct-20 13:47 35.057825 -106.585110 244 5952ft 135kts
25-Oct-20 13:48 35.038952 -106.610329 227 5318ft 81kts
25-Oct-20 13:49 35.034039 -106.618145 310 5315ft 0kts
25-Oct-20 13:50 35.036095 -106.620383 38 5313ft 0kts
25-Oct-20 13:51 35.036095 -106.620383 38 5313ft 0kts
25-Oct-20 13:52 35.036095 -106.620383 38 5313ft 0kts
25-Oct-20 13:53 35.036095 -106.620383 38 5313ft 0kts
25-Oct-20 13:54 35.036095 -106.620383 38 5313ft 0kts
25-Oct-20 13:55 35.036095 -106.620383 38 5313ft 0kts
25-Oct-20 13:56 35.036095 -106.620383 38 5313ft 0kts
25-Oct-20 13:57 35.036095 -106.620383 38 5313ft 0kts

Navigation Log

Ident Type
Flight plan parsing failed, navigation log unavailable